Box Church, Texas
Current Conditions -  °F | °C
As of 9:35 AM on Sunday 21 Dec 2014 (Local Time) from KLXY Reporting Station
Haze Haze  
Wind Chill: 47°   Ceiling: 300
Heat Index: 47°   Visibility: 5mi
Dew Point: 46°   Wind: 3mph
Humidity: 96%   Direction: 150°SSE
Pressure: 30.11"   Gusts: NA
Location:  31.5394°N, 96.5518°W
Report Text: KLXY 211535Z AUTO 15003KT 5SM BR OVC003 08/08 A3011 RMK AO2 T00820076
Loading
Personal Weather Stations






























Interactive Weather Map New forecast layout! Learn more

10-Day Weather Forecast

Advertisements
Track Severe Weather on mobile